createdAt,value
2018-11-12T00:01:37.262Z,92.65
2018-11-12T00:02:36.685Z,93.12
2018-11-12T00:04:42.270Z,92.74
2018-11-12T00:07:23.317Z,92.83
2018-11-12T00:08:25.550Z,93.41
2018-11-12T00:10:34.835Z,93.31
2018-11-12T00:11:35.370Z,93.31
2018-11-12T00:13:36.845Z,92.55
2018-11-12T00:14:39.015Z,93.70
2018-11-12T00:16:46.830Z,93.02
2018-11-12T00:17:34.131Z,93.60
2018-11-12T00:19:41.920Z,93.60
2018-11-12T00:20:39.953Z,93.79
2018-11-12T00:21:40.799Z,93.31
2018-11-12T00:22:41.397Z,93.22
2018-11-12T00:23:41.383Z,93.70
2018-11-12T00:24:39.409Z,92.74
2018-11-12T00:25:39.437Z,92.74
2018-11-12T00:44:34.538Z,93.51
2018-11-12T00:45:32.556Z,93.60
2018-11-12T00:47:38.612Z,93.70
2018-11-12T00:48:38.523Z,93.79
2018-11-12T00:49:37.040Z,93.79
2018-11-12T00:50:37.901Z,93.60
2018-11-12T00:51:37.289Z,93.70
2018-11-12T00:52:37.427Z,93.88
2018-11-12T00:53:36.705Z,93.60
2018-11-12T00:54:36.454Z,93.51
2018-11-12T00:55:36.428Z,93.51
2018-11-12T00:56:36.424Z,93.79
2018-11-12T00:57:36.412Z,93.41
2018-11-12T00:58:36.436Z,93.12
2018-11-12T00:59:36.492Z,93.70
2018-11-12T01:00:36.447Z,93.79
2018-11-12T01:01:36.473Z,93.12
2018-11-12T01:02:36.392Z,93.41
2018-11-12T01:03:36.383Z,93.41
2018-11-12T01:04:36.463Z,93.79
2018-11-12T01:05:36.389Z,93.79
2018-11-12T01:06:36.402Z,93.79
2018-11-12T01:07:36.515Z,92.93
2018-11-12T01:08:36.405Z,93.31
2018-11-12T01:09:36.460Z,93.02
2018-11-12T01:10:36.383Z,93.31
2018-11-12T01:11:36.436Z,92.93
2018-11-12T01:12:36.469Z,93.12
2018-11-12T01:13:36.426Z,93.02
2018-11-12T01:14:36.399Z,93.70
2018-11-12T01:15:36.394Z,93.12
2018-11-12T01:16:36.488Z,92.93
2018-11-12T01:17:36.423Z,92.36
2018-11-12T01:18:36.468Z,92.46
2018-11-12T01:19:36.391Z,92.93
2018-11-12T01:20:36.416Z,92.36
2018-11-12T01:21:36.404Z,92.36
2018-11-12T01:22:36.406Z,93.41
2018-11-12T01:24:22.833Z,92.74
2018-11-12T01:25:22.841Z,92.74
2018-11-12T01:27:31.823Z,93.41
2018-11-12T01:28:29.785Z,93.31
2018-11-12T01:30:41.225Z,92.93
2018-11-12T01:33:46.237Z,93.22
2018-11-12T01:34:45.097Z,92.83
2018-11-12T01:36:49.811Z,92.93
2018-11-12T01:37:49.394Z,92.74
2018-11-12T01:39:44.099Z,92.46
2018-11-12T01:40:42.065Z,92.74
2018-11-12T01:41:42.962Z,93.02
2018-11-12T01:42:42.454Z,92.36
2018-11-12T01:43:42.743Z,92.26
2018-11-12T01:44:43.429Z,92.46
2018-11-12T01:45:42.144Z,92.65
2018-11-12T01:46:42.061Z,92.74
2018-11-12T01:47:42.088Z,92.26
2018-11-12T01:48:42.013Z,92.46
2018-11-12T01:49:42.042Z,92.83
2018-11-12T01:50:42.032Z,93.31
2018-11-12T01:51:42.010Z,92.93
2018-11-12T01:52:42.018Z,92.93
2018-11-12T01:53:42.057Z,92.74
2018-11-12T01:54:42.072Z,92.26
2018-11-12T01:55:42.017Z,92.74
2018-11-12T01:56:42.105Z,92.74
2018-11-12T01:57:42.039Z,92.74
2018-11-12T01:58:42.008Z,92.83
2018-11-12T01:59:42.021Z,93.88
2018-11-12T02:00:42.036Z,93.31
2018-11-12T02:01:42.084Z,92.74
2018-11-12T02:02:42.092Z,93.51
2018-11-12T02:03:42.090Z,93.31
2018-11-12T02:04:42.041Z,93.12
2018-11-12T02:05:42.104Z,92.93
2018-11-12T02:06:42.049Z,92.65
2018-11-12T02:07:42.080Z,92.93
2018-11-12T02:08:42.128Z,93.41
2018-11-12T02:09:42.062Z,93.22
2018-11-12T02:10:42.079Z,93.31
2018-11-12T02:11:42.073Z,93.79
2018-11-12T02:12:42.061Z,93.70
2018-11-12T02:13:42.095Z,94.17
2018-11-12T02:14:42.142Z,93.60
2018-11-12T02:15:42.068Z,93.88
2018-11-12T02:16:42.045Z,93.41
2018-11-12T02:17:42.015Z,93.70
2018-11-12T02:18:42.023Z,92.79
2018-11-12T02:19:42.019Z,93.12
2018-11-12T02:20:42.042Z,93.51
2018-11-12T02:21:42.053Z,93.22
2018-11-12T02:22:42.103Z,93.02
2018-11-12T02:23:42.053Z,93.88
2018-11-12T02:24:42.025Z,93.88
2018-11-12T02:25:42.049Z,93.88
2018-11-12T02:26:42.056Z,93.31
2018-11-12T02:27:42.054Z,93.70
2018-11-12T02:28:42.079Z,93.31
2018-11-12T02:29:42.064Z,93.79
2018-11-12T02:30:42.069Z,93.60
2018-11-12T02:31:42.101Z,93.41
2018-11-12T02:32:42.067Z,93.51
2018-11-12T02:33:42.025Z,93.12
2018-11-12T02:34:42.028Z,93.31
2018-11-12T02:35:42.018Z,93.02
2018-11-12T02:36:42.085Z,93.02
2018-11-12T02:37:42.032Z,93.60
2018-11-12T02:38:42.068Z,93.70
2018-11-12T02:39:42.053Z,93.41
2018-11-12T02:40:42.094Z,92.83
2018-11-12T02:41:42.094Z,93.22
2018-11-12T02:42:42.093Z,92.93
2018-11-12T02:43:42.047Z,93.41
2018-11-12T15:52:49.393Z,83.48
2018-11-12T15:53:49.429Z,82.32
2018-11-12T15:55:01.532Z,81.51
2018-11-12T15:59:02.905Z,87.38
2018-11-12T16:02:15.674Z,90.97
2018-11-12T16:02:55.612Z,92.02
2018-11-12T16:08:39.721Z,94.46
2018-11-12T16:09:38.530Z,95.12
2018-11-12T16:11:48.441Z,95.89
2018-11-12T16:12:37.267Z,95.94
2018-11-12T16:13:38.482Z,95.65
2018-11-12T16:14:37.987Z,95.94
2018-11-12T16:15:36.960Z,96.32
2018-11-12T16:16:36.927Z,96.70
2018-11-12T16:17:36.954Z,96.32
2018-11-12T16:18:36.993Z,96.37
2018-11-12T16:19:36.982Z,96.42
2018-11-12T16:20:36.926Z,95.94
2018-11-12T16:21:36.926Z,96.13
2018-11-12T16:22:37.348Z,96.03
2018-11-12T16:23:36.953Z,96.70
2018-11-12T16:24:37.072Z,96.70
2018-11-12T16:25:37.091Z,96.42
2018-11-12T16:26:37.011Z,96.42
2018-11-12T16:27:36.932Z,96.32
2018-11-12T16:28:36.961Z,96.70
2018-11-12T16:29:36.954Z,96.70
2018-11-12T16:30:36.932Z,96.13
2018-11-12T16:31:36.986Z,96.13
2018-11-12T16:32:37.009Z,96.42
2018-11-12T16:33:37.010Z,96.32
2018-11-12T16:34:36.995Z,96.80
2018-11-12T16:35:36.947Z,96.42
2018-11-12T16:36:36.969Z,96.51
2018-11-12T16:37:37.004Z,96.61
2018-11-12T16:38:36.959Z,96.51
2018-11-12T16:39:37.003Z,96.13
2018-11-12T16:40:36.997Z,96.22
2018-11-12T16:41:36.964Z,96.13
2018-11-12T16:42:36.935Z,96.42
2018-11-12T16:43:36.981Z,96.89
2018-11-12T16:44:36.991Z,96.89
2018-11-12T16:45:36.982Z,96.70
2018-11-12T16:46:36.941Z,96.70
2018-11-12T16:47:37.009Z,96.46
2018-11-12T16:48:36.988Z,96.94
2018-11-12T16:49:37.048Z,96.42
2018-11-12T16:50:36.957Z,96.80
2018-11-12T16:51:36.940Z,96.27
2018-11-12T16:52:36.959Z,96.70
2018-11-12T16:53:36.976Z,96.70
2018-11-12T16:54:36.953Z,96.61
2018-11-12T16:55:37.013Z,95.94
2018-11-12T16:56:37.042Z,96.70
2018-11-12T16:57:36.942Z,96.03
2018-11-12T16:58:36.947Z,96.80
2018-11-12T16:59:36.945Z,96.42
2018-11-12T17:00:36.981Z,96.61
2018-11-12T17:01:37.712Z,96.89
2018-11-12T17:02:37.332Z,96.22
2018-11-12T17:03:36.979Z,96.32
2018-11-12T17:04:37.512Z,96.22
2018-11-12T17:05:36.972Z,96.42
2018-11-12T17:06:36.992Z,96.51
2018-11-12T17:07:36.977Z,96.61
2018-11-12T17:08:37.015Z,96.51
2018-11-12T17:09:36.989Z,96.51
2018-11-12T17:10:36.987Z,96.66
2018-11-12T17:11:37.029Z,96.51
2018-11-12T17:12:37.007Z,96.51
2018-11-12T17:13:37.048Z,96.80
2018-11-12T17:14:37.020Z,96.75
2018-11-12T17:15:37.004Z,96.03
2018-11-12T17:16:37.107Z,96.42
2018-11-12T17:17:37.287Z,96.75
2018-11-12T17:18:37.117Z,97.13
2018-11-12T17:19:37.044Z,97.13
2018-11-12T17:20:37.103Z,96.42
2018-11-12T17:21:37.063Z,96.70
2018-11-12T17:22:37.083Z,96.42
2018-11-12T17:23:37.086Z,96.89
2018-11-12T17:24:37.241Z,96.13
2018-11-12T17:25:37.278Z,96.37
2018-11-12T17:26:37.063Z,96.89
2018-11-12T17:27:37.065Z,96.51
2018-11-12T17:28:36.946Z,96.42
2018-11-12T17:29:36.993Z,96.70
2018-11-12T17:30:37.188Z,95.94
2018-11-12T17:31:37.026Z,96.13
2018-11-12T17:32:37.055Z,96.37
2018-11-12T17:33:36.934Z,96.03
2018-11-12T17:34:36.939Z,96.13
2018-11-12T17:35:36.953Z,96.13
2018-11-12T17:36:37.025Z,96.42
2018-11-12T17:37:36.941Z,96.32
2018-11-12T17:38:36.949Z,96.51
2018-11-12T17:39:36.964Z,96.22
2018-11-12T17:40:36.970Z,96.22
2018-11-12T17:41:36.938Z,95.75
2018-11-12T17:42:36.966Z,95.46
2018-11-12T17:43:36.981Z,96.37
2018-11-12T17:44:36.962Z,96.22
2018-11-12T17:45:36.939Z,96.42
2018-11-12T17:46:36.935Z,96.13
2018-11-12T17:47:37.022Z,95.94
2018-11-12T17:48:36.936Z,96.22
2018-11-12T17:49:37.029Z,96.22
2018-11-12T17:50:36.934Z,95.94
2018-11-12T17:51:51.209Z,96.32
2018-11-12T17:53:47.193Z,96.13
2018-11-12T17:54:45.437Z,96.32
2018-11-12T17:56:42.418Z,96.51
2018-11-12T17:57:41.543Z,96.70
2018-11-12T17:58:42.673Z,96.46
2018-11-12T17:59:40.781Z,97.03
2018-11-12T18:00:47.353Z,96.08
2018-11-12T18:01:42.106Z,96.94
2018-11-12T18:02:40.674Z,96.46
2018-11-12T18:03:40.662Z,96.80
2018-11-12T18:04:40.524Z,96.66
2018-11-12T18:05:40.621Z,96.37
2018-11-12T18:06:40.624Z,96.27
2018-11-12T18:07:40.785Z,96.37
2018-11-12T18:08:40.577Z,96.66
2018-11-12T18:09:40.586Z,96.46
2018-11-12T18:10:40.521Z,96.66
2018-11-12T18:13:24.608Z,97.13
2018-11-12T18:14:24.541Z,96.94
2018-11-12T18:15:31.760Z,96.66
2018-11-12T18:17:31.688Z,96.84
2018-11-12T18:20:27.075Z,96.84
2018-11-12T18:21:28.573Z,96.84
2018-11-12T18:22:28.530Z,96.84
2018-11-12T18:23:28.396Z,97.13
2018-11-12T18:27:40.994Z,97.89
2018-11-12T18:30:20.600Z,98.08
2018-11-12T18:33:00.197Z,98.47
2018-11-12T18:36:02.325Z,98.18
2018-11-12T18:38:51.340Z,97.99
2018-11-12T18:41:20.892Z,98.47
2018-11-12T18:42:19.825Z,97.80
2018-11-12T18:46:01.573Z,98.56
2018-11-12T18:48:42.532Z,98.47
2018-11-12T18:51:25.151Z,98.27
2018-11-12T18:52:15.434Z,97.99
2018-11-12T18:53:28.335Z,97.80
2018-11-12T18:55:43.896Z,97.99
2018-11-12T18:58:24.032Z,97.89
2018-11-12T19:01:17.481Z,98.37
2018-11-12T19:02:17.898Z,98.66
2018-11-12T19:08:02.380Z,98.08
2018-11-12T19:18:11.503Z,98.18
2018-11-12T19:21:14.191Z,98.75
2018-11-12T19:25:10.138Z,98.85
2018-11-12T19:25:15.577Z,98.85
2018-11-12T19:26:06.758Z,98.08
2018-11-12T19:30:35.917Z,98.94
2018-11-12T19:31:36.818Z,99.04
2018-11-12T19:35:38.034Z,99.23
2018-11-12T19:39:03.020Z,99.52
2018-11-12T19:40:08.616Z,99.27
2018-11-12T19:41:15.918Z,99.37
2018-11-12T19:42:03.133Z,99.66
2018-11-12T19:43:21.071Z,99.46
2018-11-12T19:44:05.757Z,99.99
2018-11-12T19:45:05.213Z,99.46
2018-11-12T19:46:03.065Z,99.85
2018-11-12T19:47:02.791Z,99.99
2018-11-12T19:48:02.979Z,99.95
2018-11-12T19:49:15.397Z,99.99
2018-11-12T19:50:06.601Z,99.99
2018-11-12T19:51:02.762Z,99.99
2018-11-12T19:52:02.965Z,99.99
2018-11-12T19:59:52.833Z,99.99
2018-11-12T20:00:46.419Z,99.99
2018-11-12T20:01:35.151Z,99.99
2018-11-12T22:03:01.087Z,99.99
2018-11-12T22:03:58.862Z,99.99
2018-11-12T22:05:55.379Z,99.99
2018-11-12T22:06:54.836Z,99.66
2018-11-12T22:07:53.086Z,99.99
2018-11-12T22:08:53.144Z,99.99
2018-11-12T22:09:54.845Z,99.99
2018-11-12T22:10:53.669Z,99.99
2018-11-12T22:11:52.765Z,99.99
2018-11-12T22:12:52.708Z,99.99
2018-11-12T22:13:52.692Z,99.99
2018-11-12T22:14:52.699Z,99.95
2018-11-12T22:15:52.704Z,99.99
2018-11-12T22:16:52.712Z,99.99
2018-11-12T22:18:03.131Z,99.99
2018-11-12T22:20:05.531Z,99.99
2018-11-12T22:21:04.210Z,99.99
2018-11-12T22:23:11.913Z,99.99
2018-11-12T22:24:22.020Z,99.99
2018-11-12T22:26:08.961Z,99.99
2018-11-12T22:29:30.399Z,99.99
2018-11-12T22:30:29.803Z,99.99
2018-11-12T22:33:05.445Z,99.99
2018-11-12T22:34:16.422Z,99.99
2018-11-12T22:38:03.448Z,99.99
2018-11-12T22:39:01.253Z,99.99
2018-11-12T22:40:58.948Z,99.99
2018-11-12T22:43:46.246Z,99.99
2018-11-12T22:44:35.045Z,99.99
2018-11-12T22:47:21.424Z,99.99
2018-11-12T22:48:24.349Z,99.99
2018-11-12T22:50:18.540Z,99.99
2018-11-12T22:51:30.583Z,99.99
2018-11-12T22:53:29.512Z,99.99
2018-11-12T22:54:41.678Z,99.99
2018-11-12T22:56:26.930Z,99.99
2018-11-12T22:57:27.129Z,99.99
2018-11-12T22:59:33.907Z,99.99
2018-11-12T23:00:34.089Z,99.99
2018-11-12T23:01:34.034Z,99.99
2018-11-12T23:02:45.543Z,99.99
2018-11-12T23:04:41.445Z,99.99
2018-11-12T23:05:41.270Z,99.99
2018-11-12T23:06:41.520Z,99.99
2018-11-12T23:07:40.937Z,99.99
2018-11-12T23:08:40.808Z,99.99
2018-11-12T23:11:21.435Z,99.99
2018-11-12T23:14:14.390Z,99.99
2018-11-12T23:15:09.225Z,99.99
2018-11-12T23:17:03.303Z,99.99
2018-11-12T23:18:14.606Z,99.99
2018-11-12T23:20:11.264Z,99.99
2018-11-12T23:21:23.370Z,99.99
2018-11-12T23:23:31.643Z,99.99
2018-11-12T23:24:18.871Z,99.99
2018-11-12T23:25:32.288Z,99.99
2018-11-12T23:27:14.794Z,99.99
2018-11-12T23:28:26.239Z,99.99
2018-11-12T23:30:30.067Z,99.99
2018-11-12T23:31:30.129Z,99.99
2018-11-12T23:33:39.808Z,99.99
2018-11-12T23:34:38.413Z,99.99
2018-11-12T23:36:22.673Z,99.99
2018-11-12T23:37:23.336Z,99.99
2018-11-12T23:38:34.017Z,99.99
2018-11-12T23:40:29.808Z,99.99
2018-11-12T23:41:41.635Z,99.99
2018-11-12T23:43:37.318Z,99.99
2018-11-12T23:44:49.317Z,99.99
2018-11-12T23:46:30.392Z,99.99
2018-11-12T23:47:30.412Z,99.99
2018-11-12T23:49:37.039Z,99.99
2018-11-12T23:50:47.246Z,99.99
2018-11-12T23:52:52.500Z,99.99
2018-11-12T23:53:43.644Z,99.99
2018-11-12T23:55:59.086Z,99.99
2018-11-12T23:57:01.609Z,99.99
